Aérodrome :
LOGIN :

S'inscrire | Disclaimer

   EN    FR    IT 

 










Légende :    VFR   VFR Marginal   IFR   IFR Intensif   IFR Très Intensif
Visi : 
Plafond : 
>= 8 km
>= 3000ft
5 à 8 km
1000 à 3000 ft
1500m à 5 km
500 à 1000 ft
800 à 1500m
200 à 500 ft
< 800m
< 200 ft
Symboles :   Orages  Brouillard  Fortes neiges  Fortes précipitations  Vent > 20 kt
SIGMETs :   Divers  Orages  Givrage  Turbulence  Onde Orograph.  Cendres Volcan.







- Altitude de l'aérodrome : 362 ft
- Code IATA : WAW


EPWA - Warsaw Okecie

DERNIER METAR :
  • 221630Z 21004KT 9999 BKN034 10/07 Q1021 NOSIG

METARs EXPIRÉS :
  • 221600Z 21004KT 9999 BKN036 10/07 Q1022 NOSIG
  • 221530Z 21004KT 190V250 9999 BKN038 10/06 Q1022 NOSIG
  • 221500Z 20005KT 9999 FEW042 10/06 Q1022 NOSIG
  • 221430Z 20004KT 9999 FEW027 11/06 Q1022 NOSIG
  • 221400Z 23004KT 190V270 9999 FEW023 11/06 Q1022 NOSIG

TAF TAF EPWA
Valide du 22 à 15h jusqu'au 23 à 15h UTC


221430Z 2215/2315 26004KT CAVOK
BECMG 2215/2218 32010KT BKN012
TEMPO 2216/2220 3000 RA BR BKN004 BKN008
BECMG 2307/2309 24014KT 4000 RA
TEMPO 2309/2315 24018G34KT 2000 RA BKN006 BKN010
Pas de NOTAMs connus pour ce terrain.
1 SIGMET publié pour la FIR Warszawa (EPWW) :
 
Turbulence forte
EPWW SIGMET 1 VALID 221630/221830 EPWA
EPWW WARSAW FIR SEV TURB FCST NW OF LINE N5550 E01730 - N5200 E01440 FL250/350 MOV SE NC=



MET'MAP, la Météo Aéronautique d'un coup d'oeil ! - Copyright ORBIFLY Décembre 2007 - Disclaimer

ORBIFLY MET'MAP TEAM :

Programmation & Développement : Alexandra Zaïnal
Conception & Développement : Baudouin d'Aumeries
Co-Programmation & Développement : Marc-Olivier Méhu
Soutien technique & logistique : Manuel Goepfert

Contact : metmap@orbifly.com




SOURCES & CREDITS :

   NOAA